sensor_id;sensor_type;location;lat;lon;timestamp;P1;durP1;ratioP1;P2;durP2;ratioP2
9080;SDS011;13509;50.760;6.080;2023-07-20T00:02:26;6.70;;;3.63;;
9080;SDS011;13509;50.760;6.080;2023-07-20T00:04:55;6.87;;;4.17;;
9080;SDS011;13509;50.760;6.080;2023-07-20T00:07:25;7.50;;;4.00;;
9080;SDS011;13509;50.760;6.080;2023-07-20T00:09:53;5.63;;;4.13;;
9080;SDS011;13509;50.760;6.080;2023-07-20T00:12:21;8.47;;;3.80;;
9080;SDS011;13509;50.760;6.080;2023-07-20T00:14:49;4.80;;;3.60;;
9080;SDS011;13509;50.760;6.080;2023-07-20T00:17:20;7.53;;;4.03;;
9080;SDS011;13509;50.760;6.080;2023-07-20T00:19:48;8.10;;;3.90;;
9080;SDS011;13509;50.760;6.080;2023-07-20T00:22:16;9.97;;;4.00;;
9080;SDS011;13509;50.760;6.080;2023-07-20T00:24:46;5.33;;;3.77;;
9080;SDS011;13509;50.760;6.080;2023-07-20T00:27:15;5.30;;;3.33;;
9080;SDS011;13509;50.760;6.080;2023-07-20T00:29:44;5.10;;;3.77;;
9080;SDS011;13509;50.760;6.080;2023-07-20T00:32:12;5.67;;;4.23;;
9080;SDS011;13509;50.760;6.080;2023-07-20T00:34:40;6.33;;;3.50;;
9080;SDS011;13509;50.760;6.080;2023-07-20T00:37:08;9.23;;;3.90;;
9080;SDS011;13509;50.760;6.080;2023-07-20T00:39:36;7.50;;;4.07;;
9080;SDS011;13509;50.760;6.080;2023-07-20T00:42:06;6.97;;;4.07;;
9080;SDS011;13509;50.760;6.080;2023-07-20T00:44:34;9.37;;;3.80;;
9080;SDS011;13509;50.760;6.080;2023-07-20T00:47:03;7.80;;;4.03;;
9080;SDS011;13509;50.760;6.080;2023-07-20T00:49:31;6.77;;;4.20;;
9080;SDS011;13509;50.760;6.080;2023-07-20T00:52:00;7.23;;;3.77;;
9080;SDS011;13509;50.760;6.080;2023-07-20T00:54:29;7.70;;;4.40;;
9080;SDS011;13509;50.760;6.080;2023-07-20T00:56:57;9.67;;;4.37;;
9080;SDS011;13509;50.760;6.080;2023-07-20T00:59:28;6.40;;;4.20;;
9080;SDS011;13509;50.760;6.080;2023-07-20T01:01:57;5.43;;;4.17;;
9080;SDS011;13509;50.760;6.080;2023-07-20T01:04:25;11.43;;;4.33;;
9080;SDS011;13509;50.760;6.080;2023-07-20T01:06:57;9.97;;;4.27;;
9080;SDS011;13509;50.760;6.080;2023-07-20T01:09:27;7.00;;;4.10;;
9080;SDS011;13509;50.760;6.080;2023-07-20T01:11:57;7.43;;;4.60;;
9080;SDS011;13509;50.760;6.080;2023-07-20T01:14:28;8.03;;;4.40;;
9080;SDS011;13509;50.760;6.080;2023-07-20T01:16:57;6.60;;;4.07;;
9080;SDS011;13509;50.760;6.080;2023-07-20T01:19:26;7.47;;;4.30;;
9080;SDS011;13509;50.760;6.080;2023-07-20T01:21:55;7.43;;;4.30;;
9080;SDS011;13509;50.760;6.080;2023-07-20T01:27:18;6.37;;;3.67;;
9080;SDS011;13509;50.760;6.080;2023-07-20T01:29:58;9.07;;;4.37;;
9080;SDS011;13509;50.760;6.080;2023-07-20T01:32:33;6.13;;;4.13;;
9080;SDS011;13509;50.760;6.080;2023-07-20T01:35:01;9.10;;;4.03;;
9080;SDS011;13509;50.760;6.080;2023-07-20T01:37:30;7.53;;;4.00;;
9080;SDS011;13509;50.760;6.080;2023-07-20T01:39:59;6.47;;;3.60;;
9080;SDS011;13509;50.760;6.080;2023-07-20T01:42:28;9.67;;;4.10;;
9080;SDS011;13509;50.760;6.080;2023-07-20T01:44:57;6.53;;;3.83;;
9080;SDS011;13509;50.760;6.080;2023-07-20T01:47:25;6.47;;;4.27;;
9080;SDS011;13509;50.760;6.080;2023-07-20T01:49:54;7.53;;;4.00;;
9080;SDS011;13509;50.760;6.080;2023-07-20T01:52:23;5.57;;;4.20;;
9080;SDS011;13509;50.760;6.080;2023-07-20T01:54:51;5.70;;;3.70;;
9080;SDS011;13509;50.760;6.080;2023-07-20T01:57:19;6.90;;;4.10;;
9080;SDS011;13509;50.760;6.080;2023-07-20T01:59:47;6.93;;;3.90;;
9080;SDS011;13509;50.760;6.080;2023-07-20T02:02:15;9.03;;;4.27;;
9080;SDS011;13509;50.760;6.080;2023-07-20T02:04:44;8.27;;;4.10;;
9080;SDS011;13509;50.760;6.080;2023-07-20T02:07:14;7.97;;;4.10;;
9080;SDS011;13509;50.760;6.080;2023-07-20T02:09:42;8.87;;;4.43;;
9080;SDS011;13509;50.760;6.080;2023-07-20T02:12:10;9.77;;;3.90;;
9080;SDS011;13509;50.760;6.080;2023-07-20T02:14:38;7.90;;;3.63;;
9080;SDS011;13509;50.760;6.080;2023-07-20T02:17:06;9.40;;;4.37;;
9080;SDS011;13509;50.760;6.080;2023-07-20T02:19:37;8.37;;;3.70;;
9080;SDS011;13509;50.760;6.080;2023-07-20T02:22:05;10.63;;;4.10;;
9080;SDS011;13509;50.760;6.080;2023-07-20T02:24:35;11.57;;;3.70;;
9080;SDS011;13509;50.760;6.080;2023-07-20T02:27:03;5.83;;;3.67;;
9080;SDS011;13509;50.760;6.080;2023-07-20T02:29:33;11.30;;;3.40;;
9080;SDS011;13509;50.760;6.080;2023-07-20T02:32:02;6.60;;;3.67;;
9080;SDS011;13509;50.760;6.080;2023-07-20T02:34:30;11.00;;;3.63;;
9080;SDS011;13509;50.760;6.080;2023-07-20T02:36:58;5.83;;;3.03;;
9080;SDS011;13509;50.760;6.080;2023-07-20T02:39:27;6.67;;;3.70;;
9080;SDS011;13509;50.760;6.080;2023-07-20T02:41:56;6.70;;;4.07;;
9080;SDS011;13509;50.760;6.080;2023-07-20T02:44:25;6.10;;;3.17;;
9080;SDS011;13509;50.760;6.080;2023-07-20T02:46:53;7.07;;;3.17;;
9080;SDS011;13509;50.760;6.080;2023-07-20T02:49:21;9.60;;;3.50;;
9080;SDS011;13509;50.760;6.080;2023-07-20T02:51:49;10.70;;;3.47;;
9080;SDS011;13509;50.760;6.080;2023-07-20T02:54:18;10.43;;;2.87;;
9080;SDS011;13509;50.760;6.080;2023-07-20T02:56:46;5.23;;;3.27;;
9080;SDS011;13509;50.760;6.080;2023-07-20T02:59:16;5.93;;;3.00;;
9080;SDS011;13509;50.760;6.080;2023-07-20T03:01:44;6.00;;;3.43;;
9080;SDS011;13509;50.760;6.080;2023-07-20T03:04:13;6.77;;;3.13;;
9080;SDS011;13509;50.760;6.080;2023-07-20T03:06:42;5.40;;;3.03;;
9080;SDS011;13509;50.760;6.080;2023-07-20T03:09:10;7.10;;;3.27;;
9080;SDS011;13509;50.760;6.080;2023-07-20T03:11:39;5.07;;;3.07;;
9080;SDS011;13509;50.760;6.080;2023-07-20T03:14:07;5.77;;;3.20;;
9080;SDS011;13509;50.760;6.080;2023-07-20T03:16:37;8.13;;;3.13;;
9080;SDS011;13509;50.760;6.080;2023-07-20T03:19:06;5.17;;;3.40;;
9080;SDS011;13509;50.760;6.080;2023-07-20T03:21:34;4.60;;;3.03;;
9080;SDS011;13509;50.760;6.080;2023-07-20T03:24:07;7.93;;;3.33;;
9080;SDS011;13509;50.760;6.080;2023-07-20T03:26:35;8.47;;;3.17;;
9080;SDS011;13509;50.760;6.080;2023-07-20T03:29:04;6.60;;;3.13;;
9080;SDS011;13509;50.760;6.080;2023-07-20T03:31:32;4.80;;;3.20;;
9080;SDS011;13509;50.760;6.080;2023-07-20T03:34:02;5.83;;;3.23;;
9080;SDS011;13509;50.760;6.080;2023-07-20T03:36:31;4.83;;;3.00;;
9080;SDS011;13509;50.760;6.080;2023-07-20T03:38:59;5.43;;;3.20;;
9080;SDS011;13509;50.760;6.080;2023-07-20T03:41:28;5.93;;;3.50;;
9080;SDS011;13509;50.760;6.080;2023-07-20T03:43:57;6.70;;;3.50;;
9080;SDS011;13509;50.760;6.080;2023-07-20T03:46:25;6.53;;;3.53;;
9080;SDS011;13509;50.760;6.080;2023-07-20T03:48:53;8.90;;;3.83;;
9080;SDS011;13509;50.760;6.080;2023-07-20T03:51:23;7.57;;;3.80;;
9080;SDS011;13509;50.760;6.080;2023-07-20T03:53:51;6.00;;;3.60;;
9080;SDS011;13509;50.760;6.080;2023-07-20T03:56:19;4.80;;;3.50;;
9080;SDS011;13509;50.760;6.080;2023-07-20T03:58:48;6.33;;;3.80;;
9080;SDS011;13509;50.760;6.080;2023-07-20T04:01:16;9.00;;;4.30;;
9080;SDS011;13509;50.760;6.080;2023-07-20T04:03:45;8.60;;;4.47;;
9080;SDS011;13509;50.760;6.080;2023-07-20T04:06:15;10.30;;;4.30;;
9080;SDS011;13509;50.760;6.080;2023-07-20T04:08:45;6.63;;;3.90;;
9080;SDS011;13509;50.760;6.080;2023-07-20T04:11:14;8.60;;;4.33;;
9080;SDS011;13509;50.760;6.080;2023-07-20T04:13:42;6.70;;;3.93;;
9080;SDS011;13509;50.760;6.080;2023-07-20T04:16:11;10.27;;;4.00;;
9080;SDS011;13509;50.760;6.080;2023-07-20T04:18:39;7.33;;;4.53;;
9080;SDS011;13509;50.760;6.080;2023-07-20T04:21:07;10.40;;;4.20;;
9080;SDS011;13509;50.760;6.080;2023-07-20T04:23:36;11.10;;;4.50;;
9080;SDS011;13509;50.760;6.080;2023-07-20T04:26:05;7.80;;;4.37;;
9080;SDS011;13509;50.760;6.080;2023-07-20T04:28:34;7.60;;;4.50;;
9080;SDS011;13509;50.760;6.080;2023-07-20T04:31:11;8.03;;;4.00;;
9080;SDS011;13509;50.760;6.080;2023-07-20T04:33:40;8.83;;;4.30;;
9080;SDS011;13509;50.760;6.080;2023-07-20T04:36:08;7.47;;;4.13;;
9080;SDS011;13509;50.760;6.080;2023-07-20T04:38:37;7.47;;;4.10;;
9080;SDS011;13509;50.760;6.080;2023-07-20T04:41:06;8.10;;;4.30;;
9080;SDS011;13509;50.760;6.080;2023-07-20T04:43:34;8.53;;;4.57;;
9080;SDS011;13509;50.760;6.080;2023-07-20T04:46:03;9.27;;;4.27;;
9080;SDS011;13509;50.760;6.080;2023-07-20T04:48:31;10.73;;;4.90;;
9080;SDS011;13509;50.760;6.080;2023-07-20T04:50:59;11.03;;;4.77;;
9080;SDS011;13509;50.760;6.080;2023-07-20T04:53:27;8.83;;;4.67;;
9080;SDS011;13509;50.760;6.080;2023-07-20T04:55:55;9.73;;;4.83;;
9080;SDS011;13509;50.760;6.080;2023-07-20T04:58:25;8.23;;;4.10;;
9080;SDS011;13509;50.760;6.080;2023-07-20T05:00:53;9.70;;;4.33;;
9080;SDS011;13509;50.760;6.080;2023-07-20T05:03:22;9.67;;;4.50;;
9080;SDS011;13509;50.760;6.080;2023-07-20T05:05:50;5.70;;;3.90;;
9080;SDS011;13509;50.760;6.080;2023-07-20T05:08:18;6.37;;;4.67;;
9080;SDS011;13509;50.760;6.080;2023-07-20T05:10:48;8.60;;;4.60;;
9080;SDS011;13509;50.760;6.080;2023-07-20T05:13:17;7.73;;;3.83;;
9080;SDS011;13509;50.760;6.080;2023-07-20T05:15:46;8.93;;;4.40;;
9080;SDS011;13509;50.760;6.080;2023-07-20T05:18:14;11.00;;;5.00;;
9080;SDS011;13509;50.760;6.080;2023-07-20T05:20:46;10.53;;;4.93;;
9080;SDS011;13509;50.760;6.080;2023-07-20T05:23:14;8.07;;;4.40;;
9080;SDS011;13509;50.760;6.080;2023-07-20T05:25:42;8.67;;;4.50;;
9080;SDS011;13509;50.760;6.080;2023-07-20T05:28:11;11.83;;;5.37;;
9080;SDS011;13509;50.760;6.080;2023-07-20T05:30:39;6.57;;;4.00;;
9080;SDS011;13509;50.760;6.080;2023-07-20T05:33:09;9.93;;;5.03;;
9080;SDS011;13509;50.760;6.080;2023-07-20T05:35:37;8.03;;;4.67;;
9080;SDS011;13509;50.760;6.080;2023-07-20T05:38:05;9.53;;;4.50;;
9080;SDS011;13509;50.760;6.080;2023-07-20T05:40:35;6.90;;;4.10;;
9080;SDS011;13509;50.760;6.080;2023-07-20T05:43:03;8.20;;;4.40;;
9080;SDS011;13509;50.760;6.080;2023-07-20T05:45:32;7.53;;;4.17;;
9080;SDS011;13509;50.760;6.080;2023-07-20T05:48:00;6.80;;;3.77;;
9080;SDS011;13509;50.760;6.080;2023-07-20T05:50:30;10.07;;;4.10;;
9080;SDS011;13509;50.760;6.080;2023-07-20T05:52:58;10.17;;;4.43;;
9080;SDS011;13509;50.760;6.080;2023-07-20T05:55:26;9.27;;;4.07;;
9080;SDS011;13509;50.760;6.080;2023-07-20T05:57:54;9.57;;;4.93;;
9080;SDS011;13509;50.760;6.080;2023-07-20T06:00:23;8.30;;;4.37;;
9080;SDS011;13509;50.760;6.080;2023-07-20T06:02:52;8.20;;;4.30;;
9080;SDS011;13509;50.760;6.080;2023-07-20T06:05:21;8.63;;;4.00;;
9080;SDS011;13509;50.760;6.080;2023-07-20T06:07:55;6.77;;;5.00;;
9080;SDS011;13509;50.760;6.080;2023-07-20T06:10:24;8.07;;;5.10;;
9080;SDS011;13509;50.760;6.080;2023-07-20T06:12:53;10.90;;;5.43;;
9080;SDS011;13509;50.760;6.080;2023-07-20T06:15:25;12.37;;;5.10;;
9080;SDS011;13509;50.760;6.080;2023-07-20T06:17:54;11.17;;;5.70;;
9080;SDS011;13509;50.760;6.080;2023-07-20T06:20:24;11.87;;;5.00;;
9080;SDS011;13509;50.760;6.080;2023-07-20T06:22:53;8.33;;;5.20;;
9080;SDS011;13509;50.760;6.080;2023-07-20T06:25:22;9.90;;;5.07;;
9080;SDS011;13509;50.760;6.080;2023-07-20T06:27:51;10.27;;;5.33;;
9080;SDS011;13509;50.760;6.080;2023-07-20T06:30:20;8.20;;;4.80;;
9080;SDS011;13509;50.760;6.080;2023-07-20T06:32:48;7.83;;;4.70;;
9080;SDS011;13509;50.760;6.080;2023-07-20T06:35:16;7.20;;;4.73;;
9080;SDS011;13509;50.760;6.080;2023-07-20T06:37:45;11.03;;;5.57;;
9080;SDS011;13509;50.760;6.080;2023-07-20T06:40:13;6.77;;;4.17;;
9080;SDS011;13509;50.760;6.080;2023-07-20T06:42:46;7.10;;;4.17;;
9080;SDS011;13509;50.760;6.080;2023-07-20T06:45:17;7.03;;;4.10;;
9080;SDS011;13509;50.760;6.080;2023-07-20T06:47:45;8.67;;;3.87;;
9080;SDS011;13509;50.760;6.080;2023-07-20T06:50:13;6.70;;;3.80;;
9080;SDS011;13509;50.760;6.080;2023-07-20T06:52:43;9.07;;;4.30;;
9080;SDS011;13509;50.760;6.080;2023-07-20T06:55:14;7.83;;;3.93;;
9080;SDS011;13509;50.760;6.080;2023-07-20T06:57:50;8.03;;;4.70;;
9080;SDS011;13509;50.760;6.080;2023-07-20T07:00:23;10.17;;;5.50;;
9080;SDS011;13509;50.760;6.080;2023-07-20T07:02:52;8.37;;;4.87;;
9080;SDS011;13509;50.760;6.080;2023-07-20T07:05:20;11.60;;;5.27;;
9080;SDS011;13509;50.760;6.080;2023-07-20T07:07:48;7.07;;;5.40;;
9080;SDS011;13509;50.760;6.080;2023-07-20T07:10:16;8.00;;;5.13;;
9080;SDS011;13509;50.760;6.080;2023-07-20T07:12:45;11.83;;;4.93;;
9080;SDS011;13509;50.760;6.080;2023-07-20T07:15:14;7.53;;;5.27;;
9080;SDS011;13509;50.760;6.080;2023-07-20T07:17:43;5.83;;;4.43;;
9080;SDS011;13509;50.760;6.080;2023-07-20T07:20:11;14.17;;;4.40;;
9080;SDS011;13509;50.760;6.080;2023-07-20T07:22:46;71.63;;;11.77;;
9080;SDS011;13509;50.760;6.080;2023-07-20T07:25:16;25.40;;;6.40;;
9080;SDS011;13509;50.760;6.080;2023-07-20T07:27:48;9.65;;;3.50;;
9080;SDS011;13509;50.760;6.080;2023-07-20T07:30:19;6.45;;;3.40;;
9080;SDS011;13509;50.760;6.080;2023-07-20T07:32:48;7.18;;;3.53;;
9080;SDS011;13509;50.760;6.080;2023-07-20T07:35:16;10.18;;;3.20;;
9080;SDS011;13509;50.760;6.080;2023-07-20T07:37:44;15.45;;;7.30;;
9080;SDS011;13509;50.760;6.080;2023-07-20T07:40:31;6.60;;;3.63;;
9080;SDS011;13509;50.760;6.080;2023-07-20T07:43:00;5.73;;;3.67;;
9080;SDS011;13509;50.760;6.080;2023-07-20T07:45:30;5.17;;;3.03;;
9080;SDS011;13509;50.760;6.080;2023-07-20T07:47:58;5.03;;;3.77;;
9080;SDS011;13509;50.760;6.080;2023-07-20T07:50:26;4.00;;;3.10;;
9080;SDS011;13509;50.760;6.080;2023-07-20T07:52:55;4.93;;;3.60;;
9080;SDS011;13509;50.760;6.080;2023-07-20T07:55:23;4.13;;;3.67;;
9080;SDS011;13509;50.760;6.080;2023-07-20T07:57:52;5.30;;;3.67;;
9080;SDS011;13509;50.760;6.080;2023-07-20T08:00:21;4.77;;;2.90;;
9080;SDS011;13509;50.760;6.080;2023-07-20T08:02:51;6.03;;;3.13;;
9080;SDS011;13509;50.760;6.080;2023-07-20T08:05:19;5.23;;;2.70;;
9080;SDS011;13509;50.760;6.080;2023-07-20T08:07:47;5.97;;;3.30;;
9080;SDS011;13509;50.760;6.080;2023-07-20T08:10:16;4.40;;;3.10;;
9080;SDS011;13509;50.760;6.080;2023-07-20T08:12:44;4.83;;;2.87;;
9080;SDS011;13509;50.760;6.080;2023-07-20T08:15:12;4.77;;;2.93;;
9080;SDS011;13509;50.760;6.080;2023-07-20T08:17:41;2.63;;;2.00;;
9080;SDS011;13509;50.760;6.080;2023-07-20T08:20:13;4.40;;;2.10;;
9080;SDS011;13509;50.760;6.080;2023-07-20T08:22:43;5.70;;;2.37;;
9080;SDS011;13509;50.760;6.080;2023-07-20T08:25:14;3.07;;;2.33;;
9080;SDS011;13509;50.760;6.080;2023-07-20T08:27:42;3.40;;;2.20;;
9080;SDS011;13509;50.760;6.080;2023-07-20T08:30:12;2.90;;;2.00;;
9080;SDS011;13509;50.760;6.080;2023-07-20T08:32:40;2.80;;;2.13;;
9080;SDS011;13509;50.760;6.080;2023-07-20T08:35:09;5.03;;;2.50;;
9080;SDS011;13509;50.760;6.080;2023-07-20T08:37:38;3.43;;;2.90;;
9080;SDS011;13509;50.760;6.080;2023-07-20T08:40:07;4.93;;;2.83;;
9080;SDS011;13509;50.760;6.080;2023-07-20T08:42:36;3.70;;;2.43;;
9080;SDS011;13509;50.760;6.080;2023-07-20T08:45:06;5.30;;;2.90;;
9080;SDS011;13509;50.760;6.080;2023-07-20T08:47:36;3.60;;;2.63;;
9080;SDS011;13509;50.760;6.080;2023-07-20T08:50:05;4.80;;;2.27;;
9080;SDS011;13509;50.760;6.080;2023-07-20T08:52:35;4.17;;;2.60;;
9080;SDS011;13509;50.760;6.080;2023-07-20T08:55:05;2.40;;;2.20;;
9080;SDS011;13509;50.760;6.080;2023-07-20T08:57:34;4.30;;;2.53;;
9080;SDS011;13509;50.760;6.080;2023-07-20T09:00:04;4.63;;;2.30;;
9080;SDS011;13509;50.760;6.080;2023-07-20T09:02:37;3.07;;;2.50;;
9080;SDS011;13509;50.760;6.080;2023-07-20T09:05:07;3.93;;;2.33;;
9080;SDS011;13509;50.760;6.080;2023-07-20T09:07:36;5.43;;;2.73;;
9080;SDS011;13509;50.760;6.080;2023-07-20T09:10:06;3.23;;;2.33;;
9080;SDS011;13509;50.760;6.080;2023-07-20T09:12:35;4.33;;;2.20;;
9080;SDS011;13509;50.760;6.080;2023-07-20T09:15:04;2.77;;;1.87;;
9080;SDS011;13509;50.760;6.080;2023-07-20T09:17:32;3.27;;;2.00;;
9080;SDS011;13509;50.760;6.080;2023-07-20T09:20:03;6.10;;;1.87;;
9080;SDS011;13509;50.760;6.080;2023-07-20T09:22:34;18.57;;;3.27;;
9080;SDS011;13509;50.760;6.080;2023-07-20T09:25:02;46.20;;;4.63;;
9080;SDS011;13509;50.760;6.080;2023-07-20T09:27:38;4.30;;;1.43;;
9080;SDS011;13509;50.760;6.080;2023-07-20T09:30:07;4.27;;;1.47;;
9080;SDS011;13509;50.760;6.080;2023-07-20T09:32:44;3.63;;;1.90;;
9080;SDS011;13509;50.760;6.080;2023-07-20T09:35:15;18.63;;;2.30;;
9080;SDS011;13509;50.760;6.080;2023-07-20T09:37:50;1.60;;;1.50;;
9080;SDS011;13509;50.760;6.080;2023-07-20T09:40:39;4.27;;;2.00;;
9080;SDS011;13509;50.760;6.080;2023-07-20T09:43:12;6.10;;;2.07;;
9080;SDS011;13509;50.760;6.080;2023-07-20T09:45:44;5.20;;;2.20;;
9080;SDS011;13509;50.760;6.080;2023-07-20T09:48:15;2.40;;;1.60;;
9080;SDS011;13509;50.760;6.080;2023-07-20T09:50:51;2.17;;;1.60;;
9080;SDS011;13509;50.760;6.080;2023-07-20T09:53:19;3.23;;;1.63;;
9080;SDS011;13509;50.760;6.080;2023-07-20T09:55:48;5.57;;;2.10;;
9080;SDS011;13509;50.760;6.080;2023-07-20T09:58:18;2.00;;;1.57;;
9080;SDS011;13509;50.760;6.080;2023-07-20T10:00:46;4.20;;;1.87;;
9080;SDS011;13509;50.760;6.080;2023-07-20T10:03:20;3.47;;;2.20;;
9080;SDS011;13509;50.760;6.080;2023-07-20T10:05:51;5.30;;;2.93;;
9080;SDS011;13509;50.760;6.080;2023-07-20T10:08:20;9.20;;;1.97;;
9080;SDS011;13509;50.760;6.080;2023-07-20T10:10:54;7.47;;;2.23;;
9080;SDS011;13509;50.760;6.080;2023-07-20T10:13:27;4.53;;;1.80;;
9080;SDS011;13509;50.760;6.080;2023-07-20T10:15:57;4.00;;;1.80;;
9080;SDS011;13509;50.760;6.080;2023-07-20T10:18:30;6.93;;;2.10;;
9080;SDS011;13509;50.760;6.080;2023-07-20T10:20:59;2.07;;;1.60;;
9080;SDS011;13509;50.760;6.080;2023-07-20T10:23:31;5.87;;;2.00;;
9080;SDS011;13509;50.760;6.080;2023-07-20T10:26:01;7.07;;;2.20;;
9080;SDS011;13509;50.760;6.080;2023-07-20T10:28:30;4.07;;;1.80;;
9080;SDS011;13509;50.760;6.080;2023-07-20T10:30:59;3.37;;;1.80;;
9080;SDS011;13509;50.760;6.080;2023-07-20T10:33:27;4.23;;;1.97;;
9080;SDS011;13509;50.760;6.080;2023-07-20T10:35:55;3.87;;;1.83;;
9080;SDS011;13509;50.760;6.080;2023-07-20T10:38:38;3.10;;;2.00;;
9080;SDS011;13509;50.760;6.080;2023-07-20T10:41:15;2.03;;;1.57;;
9080;SDS011;13509;50.760;6.080;2023-07-20T10:43:47;1.93;;;1.60;;
9080;SDS011;13509;50.760;6.080;2023-07-20T10:46:34;3.03;;;1.80;;
9080;SDS011;13509;50.760;6.080;2023-07-20T10:49:03;2.70;;;1.77;;
9080;SDS011;13509;50.760;6.080;2023-07-20T10:51:38;1.73;;;1.63;;
9080;SDS011;13509;50.760;6.080;2023-07-20T10:54:07;1.77;;;1.60;;
9080;SDS011;13509;50.760;6.080;2023-07-20T10:56:36;2.60;;;1.97;;
9080;SDS011;13509;50.760;6.080;2023-07-20T10:59:17;3.63;;;1.70;;
9080;SDS011;13509;50.760;6.080;2023-07-20T11:01:46;2.17;;;1.93;;
9080;SDS011;13509;50.760;6.080;2023-07-20T11:04:16;4.43;;;1.50;;
9080;SDS011;13509;50.760;6.080;2023-07-20T11:06:45;1.70;;;1.60;;
9080;SDS011;13509;50.760;6.080;2023-07-20T11:09:14;4.67;;;1.70;;
9080;SDS011;13509;50.760;6.080;2023-07-20T11:11:43;3.47;;;1.70;;
9080;SDS011;13509;50.760;6.080;2023-07-20T11:14:21;2.67;;;1.57;;
9080;SDS011;13509;50.760;6.080;2023-07-20T11:16:50;3.13;;;1.73;;
9080;SDS011;13509;50.760;6.080;2023-07-20T11:19:19;2.03;;;1.60;;
9080;SDS011;13509;50.760;6.080;2023-07-20T11:21:53;2.03;;;1.57;;
9080;SDS011;13509;50.760;6.080;2023-07-20T11:24:29;2.90;;;1.53;;
9080;SDS011;13509;50.760;6.080;2023-07-20T11:26:57;2.00;;;1.40;;
9080;SDS011;13509;50.760;6.080;2023-07-20T11:29:27;1.70;;;1.60;;
9080;SDS011;13509;50.760;6.080;2023-07-20T11:31:59;2.17;;;1.70;;
9080;SDS011;13509;50.760;6.080;2023-07-20T11:34:30;2.83;;;1.40;;
9080;SDS011;13509;50.760;6.080;2023-07-20T11:36:59;2.93;;;1.50;;
9080;SDS011;13509;50.760;6.080;2023-07-20T11:39:30;3.63;;;1.60;;
9080;SDS011;13509;50.760;6.080;2023-07-20T11:41:59;2.33;;;1.47;;
9080;SDS011;13509;50.760;6.080;2023-07-20T11:44:28;2.67;;;1.20;;
9080;SDS011;13509;50.760;6.080;2023-07-20T11:47:00;1.50;;;1.40;;
9080;SDS011;13509;50.760;6.080;2023-07-20T11:49:30;2.70;;;1.30;;
9080;SDS011;13509;50.760;6.080;2023-07-20T11:52:00;3.00;;;1.53;;
9080;SDS011;13509;50.760;6.080;2023-07-20T11:54:28;4.50;;;1.90;;
9080;SDS011;13509;50.760;6.080;2023-07-20T11:57:00;3.57;;;2.40;;
9080;SDS011;13509;50.760;6.080;2023-07-20T11:59:29;10.20;;;2.30;;
9080;SDS011;13509;50.760;6.080;2023-07-20T12:01:58;4.17;;;1.60;;
9080;SDS011;13509;50.760;6.080;2023-07-20T12:04:27;3.53;;;1.50;;
9080;SDS011;13509;50.760;6.080;2023-07-20T12:06:55;4.33;;;1.80;;
9080;SDS011;13509;50.760;6.080;2023-07-20T12:09:23;4.43;;;1.47;;
9080;SDS011;13509;50.760;6.080;2023-07-20T12:12:09;4.47;;;1.60;;
9080;SDS011;13509;50.760;6.080;2023-07-20T12:14:40;3.47;;;1.30;;
9080;SDS011;13509;50.760;6.080;2023-07-20T12:17:08;5.13;;;2.00;;
9080;SDS011;13509;50.760;6.080;2023-07-20T12:19:37;3.50;;;1.37;;
9080;SDS011;13509;50.760;6.080;2023-07-20T12:22:06;1.57;;;1.20;;
9080;SDS011;13509;50.760;6.080;2023-07-20T12:24:35;3.27;;;1.63;;
9080;SDS011;13509;50.760;6.080;2023-07-20T12:27:03;2.17;;;1.30;;
9080;SDS011;13509;50.760;6.080;2023-07-20T12:29:31;2.83;;;1.37;;
9080;SDS011;13509;50.760;6.080;2023-07-20T12:32:04;3.27;;;1.37;;
9080;SDS011;13509;50.760;6.080;2023-07-20T12:34:33;11.70;;;2.20;;
9080;SDS011;13509;50.760;6.080;2023-07-20T12:37:02;2.37;;;1.50;;
9080;SDS011;13509;50.760;6.080;2023-07-20T12:39:31;2.80;;;1.50;;
9080;SDS011;13509;50.760;6.080;2023-07-20T12:42:00;3.67;;;1.70;;
9080;SDS011;13509;50.760;6.080;2023-07-20T12:44:28;8.50;;;1.73;;
9080;SDS011;13509;50.760;6.080;2023-07-20T12:46:56;6.53;;;1.87;;
9080;SDS011;13509;50.760;6.080;2023-07-20T12:49:27;3.50;;;1.70;;
9080;SDS011;13509;50.760;6.080;2023-07-20T12:51:55;8.10;;;1.53;;
9080;SDS011;13509;50.760;6.080;2023-07-20T12:54:23;2.97;;;1.37;;
9080;SDS011;13509;50.760;6.080;2023-07-20T12:56:52;4.40;;;1.60;;
9080;SDS011;13509;50.760;6.080;2023-07-20T12:59:23;1.53;;;1.30;;
9080;SDS011;13509;50.760;6.080;2023-07-20T13:01:51;3.00;;;1.20;;
9080;SDS011;13509;50.760;6.080;2023-07-20T13:04:19;2.30;;;1.50;;
9080;SDS011;13509;50.760;6.080;2023-07-20T13:06:49;1.50;;;1.30;;
9080;SDS011;13509;50.760;6.080;2023-07-20T13:09:17;2.90;;;1.40;;
9080;SDS011;13509;50.760;6.080;2023-07-20T13:11:45;6.87;;;1.57;;
9080;SDS011;13509;50.760;6.080;2023-07-20T13:14:14;2.47;;;1.50;;
9080;SDS011;13509;50.760;6.080;2023-07-20T13:16:42;2.03;;;1.33;;
9080;SDS011;13509;50.760;6.080;2023-07-20T13:19:10;1.43;;;1.30;;
9080;SDS011;13509;50.760;6.080;2023-07-20T13:21:38;2.10;;;1.50;;
9080;SDS011;13509;50.760;6.080;2023-07-20T13:24:08;1.50;;;1.37;;
9080;SDS011;13509;50.760;6.080;2023-07-20T13:26:36;1.70;;;1.30;;
9080;SDS011;13509;50.760;6.080;2023-07-20T13:29:04;3.03;;;1.30;;
9080;SDS011;13509;50.760;6.080;2023-07-20T13:31:33;2.83;;;1.40;;
9080;SDS011;13509;50.760;6.080;2023-07-20T13:34:02;2.90;;;1.40;;
9080;SDS011;13509;50.760;6.080;2023-07-20T13:36:33;1.30;;;1.10;;
9080;SDS011;13509;50.760;6.080;2023-07-20T13:39:04;1.10;;;1.00;;
9080;SDS011;13509;50.760;6.080;2023-07-20T13:41:35;1.97;;;1.27;;
9080;SDS011;13509;50.760;6.080;2023-07-20T13:44:03;2.23;;;1.30;;
9080;SDS011;13509;50.760;6.080;2023-07-20T13:46:32;2.00;;;1.20;;
9080;SDS011;13509;50.760;6.080;2023-07-20T13:49:03;1.40;;;1.30;;
9080;SDS011;13509;50.760;6.080;2023-07-20T13:51:38;2.00;;;1.03;;
9080;SDS011;13509;50.760;6.080;2023-07-20T13:54:07;1.17;;;1.07;;
9080;SDS011;13509;50.760;6.080;2023-07-20T13:56:40;2.53;;;1.50;;
9080;SDS011;13509;50.760;6.080;2023-07-20T13:59:08;3.20;;;1.30;;
9080;SDS011;13509;50.760;6.080;2023-07-20T14:01:37;2.30;;;1.20;;
9080;SDS011;13509;50.760;6.080;2023-07-20T14:04:06;1.60;;;1.00;;
9080;SDS011;13509;50.760;6.080;2023-07-20T14:06:35;3.43;;;1.40;;
9080;SDS011;13509;50.760;6.080;2023-07-20T14:09:04;2.47;;;1.30;;
9080;SDS011;13509;50.760;6.080;2023-07-20T14:11:32;2.67;;;1.13;;
9080;SDS011;13509;50.760;6.080;2023-07-20T14:14:04;1.30;;;1.10;;
9080;SDS011;13509;50.760;6.080;2023-07-20T14:16:33;1.23;;;1.13;;
9080;SDS011;13509;50.760;6.080;2023-07-20T14:19:01;1.20;;;1.10;;
9080;SDS011;13509;50.760;6.080;2023-07-20T14:21:31;1.67;;;1.53;;
9080;SDS011;13509;50.760;6.080;2023-07-20T14:23:59;1.10;;;1.10;;
9080;SDS011;13509;50.760;6.080;2023-07-20T14:26:28;1.53;;;1.10;;
9080;SDS011;13509;50.760;6.080;2023-07-20T14:28:59;1.47;;;1.10;;
9080;SDS011;13509;50.760;6.080;2023-07-20T14:31:29;2.27;;;1.27;;
9080;SDS011;13509;50.760;6.080;2023-07-20T14:33:58;1.20;;;1.10;;
9080;SDS011;13509;50.760;6.080;2023-07-20T14:36:26;4.23;;;1.30;;
9080;SDS011;13509;50.760;6.080;2023-07-20T14:38:55;2.03;;;1.30;;
9080;SDS011;13509;50.760;6.080;2023-07-20T14:41:24;1.27;;;1.17;;
9080;SDS011;13509;50.760;6.080;2023-07-20T14:43:53;1.33;;;1.00;;
9080;SDS011;13509;50.760;6.080;2023-07-20T14:46:23;1.73;;;1.10;;
9080;SDS011;13509;50.760;6.080;2023-07-20T14:48:53;1.30;;;1.20;;
9080;SDS011;13509;50.760;6.080;2023-07-20T14:51:21;1.87;;;1.10;;
9080;SDS011;13509;50.760;6.080;2023-07-20T14:53:50;2.03;;;1.57;;
9080;SDS011;13509;50.760;6.080;2023-07-20T14:56:18;1.40;;;1.30;;
9080;SDS011;13509;50.760;6.080;2023-07-20T14:58:47;2.27;;;1.30;;
9080;SDS011;13509;50.760;6.080;2023-07-20T15:01:15;1.53;;;1.10;;
9080;SDS011;13509;50.760;6.080;2023-07-20T15:03:43;1.37;;;1.20;;
9080;SDS011;13509;50.760;6.080;2023-07-20T15:06:13;1.83;;;1.20;;
9080;SDS011;13509;50.760;6.080;2023-07-20T15:08:41;1.27;;;1.17;;
9080;SDS011;13509;50.760;6.080;2023-07-20T15:11:10;1.10;;;1.00;;
9080;SDS011;13509;50.760;6.080;2023-07-20T15:13:38;1.10;;;1.00;;
9080;SDS011;13509;50.760;6.080;2023-07-20T15:16:09;1.10;;;1.00;;
9080;SDS011;13509;50.760;6.080;2023-07-20T15:18:37;1.27;;;1.13;;